sensor_id;sensor_type;location;lat;lon;timestamp;P1;durP1;ratioP1;P2;durP2;ratioP2
78116;SDS011;69042;59.120;37.904;2023-08-21T00:00:10;5.40;;;2.60;;
78116;SDS011;69042;59.120;37.904;2023-08-21T00:02:38;6.53;;;2.70;;
78116;SDS011;69042;59.120;37.904;2023-08-21T00:05:05;7.57;;;2.80;;
78116;SDS011;69042;59.120;37.904;2023-08-21T00:07:32;5.70;;;2.60;;
78116;SDS011;69042;59.120;37.904;2023-08-21T00:09:58;6.55;;;2.60;;
78116;SDS011;69042;59.120;37.904;2023-08-21T00:12:24;7.53;;;2.70;;
78116;SDS011;69042;59.120;37.904;2023-08-21T00:14:50;6.07;;;2.60;;
78116;SDS011;69042;59.120;37.904;2023-08-21T00:17:16;6.53;;;2.63;;
78116;SDS011;69042;59.120;37.904;2023-08-21T00:19:42;6.65;;;2.53;;
78116;SDS011;69042;59.120;37.904;2023-08-21T00:22:08;6.20;;;2.70;;
78116;SDS011;69042;59.120;37.904;2023-08-21T00:24:35;6.97;;;2.80;;
78116;SDS011;69042;59.120;37.904;2023-08-21T00:27:01;7.43;;;2.67;;
78116;SDS011;69042;59.120;37.904;2023-08-21T00:31:55;6.50;;;2.70;;
78116;SDS011;69042;59.120;37.904;2023-08-21T00:34:21;6.63;;;2.78;;
78116;SDS011;69042;59.120;37.904;2023-08-21T00:36:48;5.80;;;2.72;;
78116;SDS011;69042;59.120;37.904;2023-08-21T00:39:15;5.95;;;2.60;;
78116;SDS011;69042;59.120;37.904;2023-08-21T00:41:41;5.38;;;2.60;;
78116;SDS011;69042;59.120;37.904;2023-08-21T00:44:07;7.88;;;2.95;;
78116;SDS011;69042;59.120;37.904;2023-08-21T00:46:34;5.80;;;2.55;;
78116;SDS011;69042;59.120;37.904;2023-08-21T00:49:00;6.35;;;2.55;;
78116;SDS011;69042;59.120;37.904;2023-08-21T00:51:28;6.22;;;2.80;;
78116;SDS011;69042;59.120;37.904;2023-08-21T00:53:55;7.07;;;2.60;;
78116;SDS011;69042;59.120;37.904;2023-08-21T00:56:21;6.30;;;3.10;;
78116;SDS011;69042;59.120;37.904;2023-08-21T00:58:47;6.10;;;3.10;;
78116;SDS011;69042;59.120;37.904;2023-08-21T01:01:13;5.63;;;2.80;;
78116;SDS011;69042;59.120;37.904;2023-08-21T01:03:44;6.03;;;2.70;;
78116;SDS011;69042;59.120;37.904;2023-08-21T01:06:10;8.70;;;3.03;;
78116;SDS011;69042;59.120;37.904;2023-08-21T01:14:22;7.20;;;3.03;;
78116;SDS011;69042;59.120;37.904;2023-08-21T01:16:58;6.45;;;2.95;;
78116;SDS011;69042;59.120;37.904;2023-08-21T01:19:30;5.97;;;2.92;;
78116;SDS011;69042;59.120;37.904;2023-08-21T01:21:58;6.25;;;2.85;;
78116;SDS011;69042;59.120;37.904;2023-08-21T01:24:26;6.78;;;3.38;;
78116;SDS011;69042;59.120;37.904;2023-08-21T01:26:52;6.32;;;2.90;;
78116;SDS011;69042;59.120;37.904;2023-08-21T01:29:18;10.13;;;3.78;;
78116;SDS011;69042;59.120;37.904;2023-08-21T01:31:45;6.93;;;2.83;;
78116;SDS011;69042;59.120;37.904;2023-08-21T01:34:18;6.28;;;3.00;;
78116;SDS011;69042;59.120;37.904;2023-08-21T01:36:44;8.18;;;2.88;;
78116;SDS011;69042;59.120;37.904;2023-08-21T01:39:11;6.70;;;3.00;;
78116;SDS011;69042;59.120;37.904;2023-08-21T01:41:38;6.70;;;2.85;;
78116;SDS011;69042;59.120;37.904;2023-08-21T01:44:04;6.18;;;2.85;;
78116;SDS011;69042;59.120;37.904;2023-08-21T01:46:30;6.28;;;2.70;;
78116;SDS011;69042;59.120;37.904;2023-08-21T01:48:56;5.82;;;2.72;;
78116;SDS011;69042;59.120;37.904;2023-08-21T01:51:23;6.40;;;2.80;;
78116;SDS011;69042;59.120;37.904;2023-08-21T01:53:49;6.00;;;2.88;;
78116;SDS011;69042;59.120;37.904;2023-08-21T01:56:15;6.47;;;2.90;;
78116;SDS011;69042;59.120;37.904;2023-08-21T01:58:41;7.03;;;3.10;;
78116;SDS011;69042;59.120;37.904;2023-08-21T02:01:07;6.35;;;2.90;;
78116;SDS011;69042;59.120;37.904;2023-08-21T02:03:33;8.65;;;2.88;;
78116;SDS011;69042;59.120;37.904;2023-08-21T02:05:59;6.70;;;2.95;;
78116;SDS011;69042;59.120;37.904;2023-08-21T02:08:32;6.10;;;2.50;;
78116;SDS011;69042;59.120;37.904;2023-08-21T02:10:59;7.13;;;2.80;;
78116;SDS011;69042;59.120;37.904;2023-08-21T02:13:26;5.68;;;2.80;;
78116;SDS011;69042;59.120;37.904;2023-08-21T02:15:52;7.55;;;2.92;;
78116;SDS011;69042;59.120;37.904;2023-08-21T02:18:18;7.55;;;3.00;;
78116;SDS011;69042;59.120;37.904;2023-08-21T02:20:44;5.65;;;2.95;;
78116;SDS011;69042;59.120;37.904;2023-08-21T02:25:39;8.25;;;3.05;;
78116;SDS011;69042;59.120;37.904;2023-08-21T02:28:06;5.82;;;2.88;;
78116;SDS011;69042;59.120;37.904;2023-08-21T02:30:32;7.35;;;3.38;;
78116;SDS011;69042;59.120;37.904;2023-08-21T02:32:58;6.47;;;2.90;;
78116;SDS011;69042;59.120;37.904;2023-08-21T02:35:25;7.03;;;2.85;;
78116;SDS011;69042;59.120;37.904;2023-08-21T02:37:51;5.80;;;2.78;;
78116;SDS011;69042;59.120;37.904;2023-08-21T02:40:17;5.78;;;2.97;;
78116;SDS011;69042;59.120;37.904;2023-08-21T02:42:44;6.55;;;3.00;;
78116;SDS011;69042;59.120;37.904;2023-08-21T02:45:10;7.15;;;2.85;;
78116;SDS011;69042;59.120;37.904;2023-08-21T02:47:36;7.05;;;3.00;;
78116;SDS011;69042;59.120;37.904;2023-08-21T02:50:04;7.00;;;3.15;;
78116;SDS011;69042;59.120;37.904;2023-08-21T02:52:31;7.10;;;2.97;;
78116;SDS011;69042;59.120;37.904;2023-08-21T02:54:58;5.80;;;2.78;;
78116;SDS011;69042;59.120;37.904;2023-08-21T02:57:25;6.63;;;2.95;;
78116;SDS011;69042;59.120;37.904;2023-08-21T03:02:19;6.03;;;2.80;;
78116;SDS011;69042;59.120;37.904;2023-08-21T03:04:45;6.75;;;3.20;;
78116;SDS011;69042;59.120;37.904;2023-08-21T03:07:12;5.93;;;3.00;;
78116;SDS011;69042;59.120;37.904;2023-08-21T03:09:39;6.07;;;2.72;;
78116;SDS011;69042;59.120;37.904;2023-08-21T03:12:05;6.75;;;2.65;;
78116;SDS011;69042;59.120;37.904;2023-08-21T03:14:33;9.07;;;3.25;;
78116;SDS011;69042;59.120;37.904;2023-08-21T03:17:00;6.78;;;3.00;;
78116;SDS011;69042;59.120;37.904;2023-08-21T03:19:26;7.60;;;3.40;;
78116;SDS011;69042;59.120;37.904;2023-08-21T03:21:53;6.68;;;2.92;;
78116;SDS011;69042;59.120;37.904;2023-08-21T03:24:20;8.30;;;3.40;;
78116;SDS011;69042;59.120;37.904;2023-08-21T03:26:47;6.65;;;2.83;;
78116;SDS011;69042;59.120;37.904;2023-08-21T03:29:13;10.27;;;2.97;;
78116;SDS011;69042;59.120;37.904;2023-08-21T03:31:40;8.93;;;3.85;;
78116;SDS011;69042;59.120;37.904;2023-08-21T03:34:07;8.48;;;3.60;;
78116;SDS011;69042;59.120;37.904;2023-08-21T03:36:35;5.75;;;2.95;;
78116;SDS011;69042;59.120;37.904;2023-08-21T03:39:04;6.63;;;2.92;;
78116;SDS011;69042;59.120;37.904;2023-08-21T03:41:34;5.85;;;2.80;;
78116;SDS011;69042;59.120;37.904;2023-08-21T03:44:00;5.90;;;2.67;;
78116;SDS011;69042;59.120;37.904;2023-08-21T03:46:27;6.55;;;2.95;;
78116;SDS011;69042;59.120;37.904;2023-08-21T03:48:54;5.97;;;2.53;;
78116;SDS011;69042;59.120;37.904;2023-08-21T03:51:20;5.80;;;2.80;;
78116;SDS011;69042;59.120;37.904;2023-08-21T03:53:47;6.40;;;3.03;;
78116;SDS011;69042;59.120;37.904;2023-08-21T03:56:13;6.25;;;2.85;;
78116;SDS011;69042;59.120;37.904;2023-08-21T03:58:39;6.32;;;2.78;;
78116;SDS011;69042;59.120;37.904;2023-08-21T04:01:06;6.35;;;2.90;;
78116;SDS011;69042;59.120;37.904;2023-08-21T04:03:32;6.03;;;2.80;;
78116;SDS011;69042;59.120;37.904;2023-08-21T04:05:59;6.80;;;2.92;;
78116;SDS011;69042;59.120;37.904;2023-08-21T04:08:25;6.90;;;2.78;;
78116;SDS011;69042;59.120;37.904;2023-08-21T04:10:51;6.10;;;3.10;;
78116;SDS011;69042;59.120;37.904;2023-08-21T04:13:25;8.35;;;3.13;;
78116;SDS011;69042;59.120;37.904;2023-08-21T04:15:53;6.15;;;3.00;;
78116;SDS011;69042;59.120;37.904;2023-08-21T04:18:21;6.25;;;3.40;;
78116;SDS011;69042;59.120;37.904;2023-08-21T04:20:47;7.40;;;3.58;;
78116;SDS011;69042;59.120;37.904;2023-08-21T04:23:14;7.82;;;2.95;;
78116;SDS011;69042;59.120;37.904;2023-08-21T04:25:41;6.78;;;3.60;;
78116;SDS011;69042;59.120;37.904;2023-08-21T04:28:07;5.95;;;3.30;;
78116;SDS011;69042;59.120;37.904;2023-08-21T04:30:33;7.68;;;4.00;;
78116;SDS011;69042;59.120;37.904;2023-08-21T04:32:59;7.97;;;4.32;;
78116;SDS011;69042;59.120;37.904;2023-08-21T04:35:26;9.65;;;5.60;;
78116;SDS011;69042;59.120;37.904;2023-08-21T04:37:52;6.95;;;4.65;;
78116;SDS011;69042;59.120;37.904;2023-08-21T04:40:20;10.60;;;6.18;;
78116;SDS011;69042;59.120;37.904;2023-08-21T04:42:48;8.35;;;5.70;;
78116;SDS011;69042;59.120;37.904;2023-08-21T04:45:14;10.30;;;6.20;;
78116;SDS011;69042;59.120;37.904;2023-08-21T04:47:40;11.55;;;6.18;;
78116;SDS011;69042;59.120;37.904;2023-08-21T04:50:07;11.32;;;6.10;;
78116;SDS011;69042;59.120;37.904;2023-08-21T04:52:34;9.02;;;5.80;;
78116;SDS011;69042;59.120;37.904;2023-08-21T04:55:00;9.13;;;6.20;;
78116;SDS011;69042;59.120;37.904;2023-08-21T04:57:29;10.85;;;5.85;;
78116;SDS011;69042;59.120;37.904;2023-08-21T04:59:56;10.52;;;6.10;;
78116;SDS011;69042;59.120;37.904;2023-08-21T05:02:29;10.48;;;6.60;;
78116;SDS011;69042;59.120;37.904;2023-08-21T05:04:55;11.20;;;6.13;;
78116;SDS011;69042;59.120;37.904;2023-08-21T05:07:21;12.75;;;6.25;;
78116;SDS011;69042;59.120;37.904;2023-08-21T05:09:48;8.93;;;5.38;;
78116;SDS011;69042;59.120;37.904;2023-08-21T05:12:17;9.45;;;4.95;;
78116;SDS011;69042;59.120;37.904;2023-08-21T05:14:43;8.70;;;4.47;;
78116;SDS011;69042;59.120;37.904;2023-08-21T05:17:09;10.20;;;4.93;;
78116;SDS011;69042;59.120;37.904;2023-08-21T05:19:36;9.15;;;5.18;;
78116;SDS011;69042;59.120;37.904;2023-08-21T05:22:02;8.68;;;4.95;;
78116;SDS011;69042;59.120;37.904;2023-08-21T05:24:31;11.10;;;6.60;;
78116;SDS011;69042;59.120;37.904;2023-08-21T05:27:01;11.95;;;5.80;;
78116;SDS011;69042;59.120;37.904;2023-08-21T05:29:30;8.35;;;5.10;;
78116;SDS011;69042;59.120;37.904;2023-08-21T05:31:56;8.95;;;5.43;;
78116;SDS011;69042;59.120;37.904;2023-08-21T05:34:25;13.32;;;5.63;;
78116;SDS011;69042;59.120;37.904;2023-08-21T05:36:52;10.90;;;5.72;;
78116;SDS011;69042;59.120;37.904;2023-08-21T05:39:20;11.45;;;5.68;;
78116;SDS011;69042;59.120;37.904;2023-08-21T05:41:48;8.25;;;3.95;;
78116;SDS011;69042;59.120;37.904;2023-08-21T05:44:14;8.60;;;5.15;;
78116;SDS011;69042;59.120;37.904;2023-08-21T05:46:41;9.50;;;4.85;;
78116;SDS011;69042;59.120;37.904;2023-08-21T05:49:07;8.27;;;4.70;;
78116;SDS011;69042;59.120;37.904;2023-08-21T05:51:33;8.30;;;4.55;;
78116;SDS011;69042;59.120;37.904;2023-08-21T05:54:00;10.13;;;5.25;;
78116;SDS011;69042;59.120;37.904;2023-08-21T05:56:26;10.82;;;4.82;;
78116;SDS011;69042;59.120;37.904;2023-08-21T05:58:53;12.93;;;6.60;;
78116;SDS011;69042;59.120;37.904;2023-08-21T06:01:23;14.13;;;8.57;;
78116;SDS011;69042;59.120;37.904;2023-08-21T06:03:49;13.77;;;8.48;;
78116;SDS011;69042;59.120;37.904;2023-08-21T06:06:16;12.70;;;7.78;;
78116;SDS011;69042;59.120;37.904;2023-08-21T06:08:42;12.65;;;6.97;;
78116;SDS011;69042;59.120;37.904;2023-08-21T06:11:09;12.35;;;6.50;;
78116;SDS011;69042;59.120;37.904;2023-08-21T06:13:35;11.02;;;5.90;;
78116;SDS011;69042;59.120;37.904;2023-08-21T06:16:01;9.70;;;5.10;;
78116;SDS011;69042;59.120;37.904;2023-08-21T06:18:29;10.23;;;5.47;;
78116;SDS011;69042;59.120;37.904;2023-08-21T06:20:55;8.45;;;5.20;;
78116;SDS011;69042;59.120;37.904;2023-08-21T06:23:22;9.13;;;5.00;;
78116;SDS011;69042;59.120;37.904;2023-08-21T06:25:48;14.18;;;5.43;;
78116;SDS011;69042;59.120;37.904;2023-08-21T06:28:15;10.15;;;4.57;;
78116;SDS011;69042;59.120;37.904;2023-08-21T06:30:42;9.95;;;4.40;;
78116;SDS011;69042;59.120;37.904;2023-08-21T06:33:08;14.25;;;5.10;;
78116;SDS011;69042;59.120;37.904;2023-08-21T06:35:37;11.70;;;6.90;;
78116;SDS011;69042;59.120;37.904;2023-08-21T06:38:04;10.63;;;5.07;;
78116;SDS011;69042;59.120;37.904;2023-08-21T06:40:31;8.63;;;4.28;;
78116;SDS011;69042;59.120;37.904;2023-08-21T06:42:57;6.93;;;4.03;;
78116;SDS011;69042;59.120;37.904;2023-08-21T06:45:29;10.13;;;5.20;;
78116;SDS011;69042;59.120;37.904;2023-08-21T06:47:57;11.50;;;4.78;;
78116;SDS011;69042;59.120;37.904;2023-08-21T06:50:23;10.82;;;4.90;;
78116;SDS011;69042;59.120;37.904;2023-08-21T06:52:50;7.35;;;3.80;;
78116;SDS011;69042;59.120;37.904;2023-08-21T06:55:16;9.38;;;4.03;;
78116;SDS011;69042;59.120;37.904;2023-08-21T06:57:42;9.25;;;4.80;;
78116;SDS011;69042;59.120;37.904;2023-08-21T07:00:09;7.25;;;4.05;;
78116;SDS011;69042;59.120;37.904;2023-08-21T07:02:44;9.50;;;3.50;;
78116;SDS011;69042;59.120;37.904;2023-08-21T07:05:10;9.73;;;4.00;;
78116;SDS011;69042;59.120;37.904;2023-08-21T07:07:36;8.35;;;3.88;;
78116;SDS011;69042;59.120;37.904;2023-08-21T07:10:03;8.25;;;4.13;;
78116;SDS011;69042;59.120;37.904;2023-08-21T07:12:29;7.03;;;3.83;;
78116;SDS011;69042;59.120;37.904;2023-08-21T07:14:56;7.47;;;3.80;;
78116;SDS011;69042;59.120;37.904;2023-08-21T07:17:22;7.88;;;4.20;;
78116;SDS011;69042;59.120;37.904;2023-08-21T07:19:48;7.00;;;3.80;;
78116;SDS011;69042;59.120;37.904;2023-08-21T07:22:18;11.65;;;3.60;;
78116;SDS011;69042;59.120;37.904;2023-08-21T07:24:45;11.10;;;4.53;;
78116;SDS011;69042;59.120;37.904;2023-08-21T07:27:12;6.68;;;3.63;;
78116;SDS011;69042;59.120;37.904;2023-08-21T07:29:38;9.80;;;4.00;;
78116;SDS011;69042;59.120;37.904;2023-08-21T07:32:04;7.32;;;3.28;;
78116;SDS011;69042;59.120;37.904;2023-08-21T07:34:31;12.07;;;4.13;;
78116;SDS011;69042;59.120;37.904;2023-08-21T07:36:57;8.85;;;3.75;;
78116;SDS011;69042;59.120;37.904;2023-08-21T07:39:25;9.65;;;3.80;;
78116;SDS011;69042;59.120;37.904;2023-08-21T07:41:51;11.73;;;4.97;;
78116;SDS011;69042;59.120;37.904;2023-08-21T07:44:19;9.95;;;4.55;;
78116;SDS011;69042;59.120;37.904;2023-08-21T07:46:48;8.65;;;4.30;;
78116;SDS011;69042;59.120;37.904;2023-08-21T07:49:14;7.13;;;4.10;;
78116;SDS011;69042;59.120;37.904;2023-08-21T07:51:40;8.32;;;3.60;;
78116;SDS011;69042;59.120;37.904;2023-08-21T07:54:08;7.95;;;3.80;;
78116;SDS011;69042;59.120;37.904;2023-08-21T07:56:34;7.85;;;4.30;;
78116;SDS011;69042;59.120;37.904;2023-08-21T07:59:03;8.75;;;3.90;;
78116;SDS011;69042;59.120;37.904;2023-08-21T08:01:29;7.30;;;3.72;;
78116;SDS011;69042;59.120;37.904;2023-08-21T08:03:56;7.53;;;4.20;;
78116;SDS011;69042;59.120;37.904;2023-08-21T08:06:22;9.70;;;4.15;;
78116;SDS011;69042;59.120;37.904;2023-08-21T08:08:48;8.63;;;4.70;;
78116;SDS011;69042;59.120;37.904;2023-08-21T08:11:14;9.50;;;5.15;;
78116;SDS011;69042;59.120;37.904;2023-08-21T08:13:41;8.35;;;4.05;;
78116;SDS011;69042;59.120;37.904;2023-08-21T08:16:07;7.85;;;4.30;;
78116;SDS011;69042;59.120;37.904;2023-08-21T08:18:33;7.57;;;3.92;;
78116;SDS011;69042;59.120;37.904;2023-08-21T08:20:59;7.78;;;4.00;;
78116;SDS011;69042;59.120;37.904;2023-08-21T08:23:25;21.33;;;8.55;;
78116;SDS011;69042;59.120;37.904;2023-08-21T08:25:51;17.25;;;9.10;;
78116;SDS011;69042;59.120;37.904;2023-08-21T08:28:18;26.42;;;11.70;;
78116;SDS011;69042;59.120;37.904;2023-08-21T08:30:45;25.98;;;11.35;;
78116;SDS011;69042;59.120;37.904;2023-08-21T08:33:11;22.38;;;10.85;;
78116;SDS011;69042;59.120;37.904;2023-08-21T08:35:37;26.38;;;11.55;;
78116;SDS011;69042;59.120;37.904;2023-08-21T08:38:06;25.55;;;11.75;;
78116;SDS011;69042;59.120;37.904;2023-08-21T08:40:32;21.45;;;10.18;;
78116;SDS011;69042;59.120;37.904;2023-08-21T08:42:59;21.40;;;10.85;;
78116;SDS011;69042;59.120;37.904;2023-08-21T08:45:29;26.23;;;9.60;;
78116;SDS011;69042;59.120;37.904;2023-08-21T08:48:01;15.95;;;8.20;;
78116;SDS011;69042;59.120;37.904;2023-08-21T08:50:30;13.77;;;7.15;;
78116;SDS011;69042;59.120;37.904;2023-08-21T08:52:56;17.63;;;8.85;;
78116;SDS011;69042;59.120;37.904;2023-08-21T08:55:24;15.65;;;7.45;;
78116;SDS011;69042;59.120;37.904;2023-08-21T08:57:51;20.63;;;8.65;;
78116;SDS011;69042;59.120;37.904;2023-08-21T09:00:18;19.52;;;9.10;;
78116;SDS011;69042;59.120;37.904;2023-08-21T09:02:46;17.15;;;9.57;;
78116;SDS011;69042;59.120;37.904;2023-08-21T09:05:12;19.70;;;10.32;;
78116;SDS011;69042;59.120;37.904;2023-08-21T09:07:39;22.98;;;11.13;;
78116;SDS011;69042;59.120;37.904;2023-08-21T09:10:12;30.00;;;13.52;;
78116;SDS011;69042;59.120;37.904;2023-08-21T09:12:40;26.98;;;10.55;;
78116;SDS011;69042;59.120;37.904;2023-08-21T09:15:06;22.25;;;11.25;;
78116;SDS011;69042;59.120;37.904;2023-08-21T09:17:33;21.17;;;11.05;;
78116;SDS011;69042;59.120;37.904;2023-08-21T09:20:04;29.02;;;15.48;;
78116;SDS011;69042;59.120;37.904;2023-08-21T09:22:31;22.17;;;11.23;;
78116;SDS011;69042;59.120;37.904;2023-08-21T09:27:37;19.38;;;9.38;;
78116;SDS011;69042;59.120;37.904;2023-08-21T09:30:05;21.55;;;10.32;;
78116;SDS011;69042;59.120;37.904;2023-08-21T09:35:24;20.80;;;9.88;;
78116;SDS011;69042;59.120;37.904;2023-08-21T09:37:50;20.33;;;9.63;;
78116;SDS011;69042;59.120;37.904;2023-08-21T09:40:19;18.20;;;7.57;;
78116;SDS011;69042;59.120;37.904;2023-08-21T09:42:54;18.15;;;8.93;;
78116;SDS011;69042;59.120;37.904;2023-08-21T09:45:22;22.00;;;8.95;;
78116;SDS011;69042;59.120;37.904;2023-08-21T09:47:50;20.42;;;8.63;;
78116;SDS011;69042;59.120;37.904;2023-08-21T09:52:43;18.67;;;8.30;;
78116;SDS011;69042;59.120;37.904;2023-08-21T09:55:14;6.38;;;2.95;;
78116;SDS011;69042;59.120;37.904;2023-08-21T09:57:41;7.85;;;2.67;;
78116;SDS011;69042;59.120;37.904;2023-08-21T10:00:08;9.00;;;3.40;;
78116;SDS011;69042;59.120;37.904;2023-08-21T10:02:55;6.72;;;2.70;;
78116;SDS011;69042;59.120;37.904;2023-08-21T10:05:27;6.53;;;2.40;;
78116;SDS011;69042;59.120;37.904;2023-08-21T10:07:54;6.47;;;2.13;;
78116;SDS011;69042;59.120;37.904;2023-08-21T10:10:25;7.05;;;2.10;;
78116;SDS011;69042;59.120;37.904;2023-08-21T12:23:53;3.65;;;1.60;;
78116;SDS011;69042;59.120;37.904;2023-08-21T12:26:19;5.38;;;1.90;;
78116;SDS011;69042;59.120;37.904;2023-08-21T12:28:48;4.75;;;2.40;;
78116;SDS011;69042;59.120;37.904;2023-08-21T12:31:16;4.45;;;2.00;;
78116;SDS011;69042;59.120;37.904;2023-08-21T12:33:42;5.43;;;2.13;;
78116;SDS011;69042;59.120;37.904;2023-08-21T12:36:09;7.15;;;1.63;;
78116;SDS011;69042;59.120;37.904;2023-08-21T12:38:35;4.72;;;1.67;;
78116;SDS011;69042;59.120;37.904;2023-08-21T12:41:01;4.28;;;1.92;;
78116;SDS011;69042;59.120;37.904;2023-08-21T12:43:28;5.18;;;1.50;;
78116;SDS011;69042;59.120;37.904;2023-08-21T12:45:55;5.15;;;2.05;;
78116;SDS011;69042;59.120;37.904;2023-08-21T12:48:21;5.82;;;2.42;;
78116;SDS011;69042;59.120;37.904;2023-08-21T12:50:47;6.70;;;2.00;;
78116;SDS011;69042;59.120;37.904;2023-08-21T12:53:14;6.07;;;1.60;;
78116;SDS011;69042;59.120;37.904;2023-08-21T12:55:40;6.72;;;1.70;;
78116;SDS011;69042;59.120;37.904;2023-08-21T12:58:06;4.63;;;1.70;;
78116;SDS011;69042;59.120;37.904;2023-08-21T13:00:32;4.88;;;1.63;;
78116;SDS011;69042;59.120;37.904;2023-08-21T13:02:59;4.53;;;1.80;;
78116;SDS011;69042;59.120;37.904;2023-08-21T13:05:25;5.80;;;1.92;;
78116;SDS011;69042;59.120;37.904;2023-08-21T13:07:52;15.10;;;8.07;;
78116;SDS011;69042;59.120;37.904;2023-08-21T13:10:18;3.78;;;1.40;;
78116;SDS011;69042;59.120;37.904;2023-08-21T13:12:45;5.05;;;1.50;;
78116;SDS011;69042;59.120;37.904;2023-08-21T13:15:11;4.30;;;1.52;;
78116;SDS011;69042;59.120;37.904;2023-08-21T13:17:37;5.30;;;1.92;;
78116;SDS011;69042;59.120;37.904;2023-08-21T13:20:03;4.45;;;1.73;;
78116;SDS011;69042;59.120;37.904;2023-08-21T13:25:21;3.50;;;1.40;;
78116;SDS011;69042;59.120;37.904;2023-08-21T13:27:49;4.75;;;1.50;;
78116;SDS011;69042;59.120;37.904;2023-08-21T13:30:16;4.40;;;1.50;;
78116;SDS011;69042;59.120;37.904;2023-08-21T13:32:43;6.72;;;1.30;;
78116;SDS011;69042;59.120;37.904;2023-08-21T13:35:10;4.10;;;1.60;;
78116;SDS011;69042;59.120;37.904;2023-08-21T13:37:37;3.72;;;1.38;;
78116;SDS011;69042;59.120;37.904;2023-08-21T13:42:37;5.40;;;2.10;;
78116;SDS011;69042;59.120;37.904;2023-08-21T13:45:10;6.05;;;2.20;;
78116;SDS011;69042;59.120;37.904;2023-08-21T13:47:41;4.63;;;1.90;;
78116;SDS011;69042;59.120;37.904;2023-08-21T13:50:09;6.13;;;2.03;;
78116;SDS011;69042;59.120;37.904;2023-08-21T13:52:36;4.75;;;1.85;;
78116;SDS011;69042;59.120;37.904;2023-08-21T13:55:05;3.45;;;1.60;;
78116;SDS011;69042;59.120;37.904;2023-08-21T13:57:32;5.35;;;1.83;;
78116;SDS011;69042;59.120;37.904;2023-08-21T13:59:59;4.68;;;2.00;;
78116;SDS011;69042;59.120;37.904;2023-08-21T14:02:26;3.50;;;1.60;;
78116;SDS011;69042;59.120;37.904;2023-08-21T14:04:52;4.95;;;1.42;;
78116;SDS011;69042;59.120;37.904;2023-08-21T14:07:18;4.03;;;1.60;;
78116;SDS011;69042;59.120;37.904;2023-08-21T14:09:44;4.10;;;1.40;;
78116;SDS011;69042;59.120;37.904;2023-08-21T14:12:10;6.07;;;1.48;;
78116;SDS011;69042;59.120;37.904;2023-08-21T14:14:36;5.78;;;2.10;;
78116;SDS011;69042;59.120;37.904;2023-08-21T14:17:03;3.78;;;1.60;;
78116;SDS011;69042;59.120;37.904;2023-08-21T14:19:30;5.47;;;1.60;;
78116;SDS011;69042;59.120;37.904;2023-08-21T14:21:59;3.97;;;1.27;;
78116;SDS011;69042;59.120;37.904;2023-08-21T14:24:26;4.00;;;1.50;;
78116;SDS011;69042;59.120;37.904;2023-08-21T14:26:53;4.97;;;1.55;;
78116;SDS011;69042;59.120;37.904;2023-08-21T14:29:19;5.05;;;1.50;;
78116;SDS011;69042;59.120;37.904;2023-08-21T14:31:45;4.90;;;2.13;;
78116;SDS011;69042;59.120;37.904;2023-08-21T14:34:13;5.15;;;1.90;;
78116;SDS011;69042;59.120;37.904;2023-08-21T14:36:40;3.47;;;1.50;;
78116;SDS011;69042;59.120;37.904;2023-08-21T14:39:06;5.05;;;1.60;;
78116;SDS011;69042;59.120;37.904;2023-08-21T14:41:32;5.63;;;1.50;;
78116;SDS011;69042;59.120;37.904;2023-08-21T14:43:58;6.18;;;1.80;;
78116;SDS011;69042;59.120;37.904;2023-08-21T14:46:24;8.38;;;1.50;;
78116;SDS011;69042;59.120;37.904;2023-08-21T14:48:51;5.03;;;1.95;;
78116;SDS011;69042;59.120;37.904;2023-08-21T14:51:17;4.68;;;1.88;;
78116;SDS011;69042;59.120;37.904;2023-08-21T14:53:43;6.53;;;2.03;;
78116;SDS011;69042;59.120;37.904;2023-08-21T14:56:09;14.43;;;2.80;;
78116;SDS011;69042;59.120;37.904;2023-08-21T14:58:35;6.03;;;1.90;;
78116;SDS011;69042;59.120;37.904;2023-08-21T15:01:01;8.15;;;3.20;;
78116;SDS011;69042;59.120;37.904;2023-08-21T15:03:28;6.05;;;1.88;;
78116;SDS011;69042;59.120;37.904;2023-08-21T15:05:55;7.55;;;1.67;;
78116;SDS011;69042;59.120;37.904;2023-08-21T15:08:21;5.93;;;2.30;;
78116;SDS011;69042;59.120;37.904;2023-08-21T15:10:47;6.05;;;2.13;;
78116;SDS011;69042;59.120;37.904;2023-08-21T15:13:13;5.90;;;1.80;;
78116;SDS011;69042;59.120;37.904;2023-08-21T15:15:39;6.82;;;2.20;;
78116;SDS011;69042;59.120;37.904;2023-08-21T15:18:05;4.97;;;2.05;;
78116;SDS011;69042;59.120;37.904;2023-08-21T15:20:31;6.30;;;2.20;;
78116;SDS011;69042;59.120;37.904;2023-08-21T15:22:58;3.70;;;1.65;;
78116;SDS011;69042;59.120;37.904;2023-08-21T15:25:24;5.63;;;1.98;;
78116;SDS011;69042;59.120;37.904;2023-08-21T15:27:50;7.00;;;2.25;;
78116;SDS011;69042;59.120;37.904;2023-08-21T15:30:17;9.32;;;2.10;;
78116;SDS011;69042;59.120;37.904;2023-08-21T15:32:43;7.93;;;2.15;;
78116;SDS011;69042;59.120;37.904;2023-08-21T15:35:11;6.53;;;2.03;;
78116;SDS011;69042;59.120;37.904;2023-08-21T15:37:37;6.80;;;1.90;;
78116;SDS011;69042;59.120;37.904;2023-08-21T15:40:03;6.13;;;2.00;;
78116;SDS011;69042;59.120;37.904;2023-08-21T15:42:30;4.57;;;1.88;;
78116;SDS011;69042;59.120;37.904;2023-08-21T15:47:23;6.38;;;2.35;;
78116;SDS011;69042;59.120;37.904;2023-08-21T15:49:49;7.18;;;2.00;;
78116;SDS011;69042;59.120;37.904;2023-08-21T15:52:15;6.30;;;2.10;;
78116;SDS011;69042;59.120;37.904;2023-08-21T15:54:42;8.48;;;2.10;;
78116;SDS011;69042;59.120;37.904;2023-08-21T15:57:08;7.18;;;1.98;;
78116;SDS011;69042;59.120;37.904;2023-08-21T15:59:36;8.05;;;2.22;;
78116;SDS011;69042;59.120;37.904;2023-08-21T16:02:04;4.63;;;1.80;;
78116;SDS011;69042;59.120;37.904;2023-08-21T16:04:31;8.75;;;2.50;;
78116;SDS011;69042;59.120;37.904;2023-08-21T16:06:57;6.68;;;2.20;;
78116;SDS011;69042;59.120;37.904;2023-08-21T16:09:23;5.85;;;2.25;;
78116;SDS011;69042;59.120;37.904;2023-08-21T16:11:49;7.95;;;2.10;;
78116;SDS011;69042;59.120;37.904;2023-08-21T16:14:16;8.85;;;2.17;;
78116;SDS011;69042;59.120;37.904;2023-08-21T16:16:43;7.75;;;2.10;;
78116;SDS011;69042;59.120;37.904;2023-08-21T16:19:09;6.38;;;1.92;;
78116;SDS011;69042;59.120;37.904;2023-08-21T16:21:36;8.52;;;2.38;;
78116;SDS011;69042;59.120;37.904;2023-08-21T16:24:03;8.43;;;1.98;;
78116;SDS011;69042;59.120;37.904;2023-08-21T16:26:29;9.32;;;2.22;;
78116;SDS011;69042;59.120;37.904;2023-08-21T16:28:56;6.50;;;2.78;;
78116;SDS011;69042;59.120;37.904;2023-08-21T16:31:23;9.88;;;2.42;;
78116;SDS011;69042;59.120;37.904;2023-08-21T16:33:50;6.32;;;1.92;;
78116;SDS011;69042;59.120;37.904;2023-08-21T16:36:16;4.32;;;1.80;;
78116;SDS011;69042;59.120;37.904;2023-08-21T16:38:42;6.88;;;2.60;;
78116;SDS011;69042;59.120;37.904;2023-08-21T16:41:08;6.15;;;2.22;;
78116;SDS011;69042;59.120;37.904;2023-08-21T16:43:35;8.25;;;2.25;;
78116;SDS011;69042;59.120;37.904;2023-08-21T16:46:01;10.05;;;2.50;;
78116;SDS011;69042;59.120;37.904;2023-08-21T16:48:27;12.10;;;3.15;;
78116;SDS011;69042;59.120;37.904;2023-08-21T16:50:53;10.57;;;2.63;;
78116;SDS011;69042;59.120;37.904;2023-08-21T16:53:19;10.35;;;2.60;;
78116;SDS011;69042;59.120;37.904;2023-08-21T16:55:45;9.05;;;2.70;;
78116;SDS011;69042;59.120;37.904;2023-08-21T16:58:12;13.60;;;3.42;;
78116;SDS011;69042;59.120;37.904;2023-08-21T17:00:40;5.80;;;2.83;;
78116;SDS011;69042;59.120;37.904;2023-08-21T17:03:07;8.38;;;2.92;;
78116;SDS011;69042;59.120;37.904;2023-08-21T17:05:34;7.25;;;2.42;;
78116;SDS011;69042;59.120;37.904;2023-08-21T17:08:01;7.32;;;2.60;;